sensor_id;sensor_type;location;lat;lon;timestamp;pressure;altitude;pressure_sealevel;temperature;humidity
21742;BME280;11033;47.490;11.116;2023-02-28T00:00:10;93367.91;;;-3.38;85.14
21742;BME280;11033;47.490;11.116;2023-02-28T00:02:42;93367.38;;;-3.43;84.99
21742;BME280;11033;47.490;11.116;2023-02-28T00:05:09;93358.75;;;-3.42;85.79
21742;BME280;11033;47.490;11.116;2023-02-28T00:07:35;93359.44;;;-3.53;86.12
21742;BME280;11033;47.490;11.116;2023-02-28T00:10:01;93353.38;;;-3.39;85.55
21742;BME280;11033;47.490;11.116;2023-02-28T00:12:26;93357.00;;;-3.29;85.31
21742;BME280;11033;47.490;11.116;2023-02-28T00:14:52;93346.59;;;-3.40;84.79
21742;BME280;11033;47.490;11.116;2023-02-28T00:17:17;93350.72;;;-3.37;86.18
21742;BME280;11033;47.490;11.116;2023-02-28T00:19:47;93354.63;;;-3.32;85.64
21742;BME280;11033;47.490;11.116;2023-02-28T00:22:12;93348.75;;;-3.34;85.07
21742;BME280;11033;47.490;11.116;2023-02-28T00:24:37;93348.84;;;-3.35;84.94
21742;BME280;11033;47.490;11.116;2023-02-28T00:27:03;93350.81;;;-3.39;85.19
21742;BME280;11033;47.490;11.116;2023-02-28T00:29:28;93352.16;;;-3.33;86.25
21742;BME280;11033;47.490;11.116;2023-02-28T00:31:53;93356.47;;;-3.34;85.76
21742;BME280;11033;47.490;11.116;2023-02-28T00:34:18;93352.66;;;-3.41;86.21
21742;BME280;11033;47.490;11.116;2023-02-28T00:36:44;93346.19;;;-3.34;85.66
21742;BME280;11033;47.490;11.116;2023-02-28T00:39:11;93355.34;;;-3.30;86.44
21742;BME280;11033;47.490;11.116;2023-02-28T00:41:36;93348.75;;;-3.34;85.27
21742;BME280;11033;47.490;11.116;2023-02-28T00:44:02;93358.75;;;-3.42;85.12
21742;BME280;11033;47.490;11.116;2023-02-28T00:46:27;93349.69;;;-3.35;84.94
21742;BME280;11033;47.490;11.116;2023-02-28T00:48:52;93349.69;;;-3.35;84.57
21742;BME280;11033;47.490;11.116;2023-02-28T00:51:17;93347.81;;;-3.33;84.93
21742;BME280;11033;47.490;11.116;2023-02-28T00:53:43;93345.38;;;-3.22;84.40
21742;BME280;11033;47.490;11.116;2023-02-28T00:56:08;93340.44;;;-3.25;84.62
21742;BME280;11033;47.490;11.116;2023-02-28T00:58:33;93345.25;;;-3.33;85.41
21742;BME280;11033;47.490;11.116;2023-02-28T01:00:58;93346.09;;;-3.20;84.81
21742;BME280;11033;47.490;11.116;2023-02-28T01:03:24;93348.03;;;-3.36;85.21
21742;BME280;11033;47.490;11.116;2023-02-28T01:05:49;93341.22;;;-3.37;84.73
21742;BME280;11033;47.490;11.116;2023-02-28T01:08:15;93347.81;;;-3.33;84.64
21742;BME280;11033;47.490;11.116;2023-02-28T01:10:40;93345.75;;;-3.28;85.51
21742;BME280;11033;47.490;11.116;2023-02-28T01:13:06;93342.47;;;-3.30;85.44
21742;BME280;11033;47.490;11.116;2023-02-28T01:15:31;93338.75;;;-3.26;85.22
21742;BME280;11033;47.490;11.116;2023-02-28T01:17:57;93333.81;;;-3.29;84.97
21742;BME280;11033;47.490;11.116;2023-02-28T01:20:23;93333.00;;;-3.29;84.28
21742;BME280;11033;47.490;11.116;2023-02-28T01:22:48;93333.09;;;-3.31;84.63
21742;BME280;11033;47.490;11.116;2023-02-28T01:25:15;93333.44;;;-3.23;84.90
21742;BME280;11033;47.490;11.116;2023-02-28T01:27:40;93325.38;;;-3.31;84.27
21742;BME280;11033;47.490;11.116;2023-02-28T01:30:07;93333.81;;;-3.41;84.60
21742;BME280;11033;47.490;11.116;2023-02-28T01:32:33;93326.81;;;-3.39;85.14
21742;BME280;11033;47.490;11.116;2023-02-28T01:34:59;93329.91;;;-3.47;85.61
21742;BME280;11033;47.490;11.116;2023-02-28T01:37:24;93330.63;;;-3.45;84.75
21742;BME280;11033;47.490;11.116;2023-02-28T01:39:49;93319.91;;;-3.52;85.23
21742;BME280;11033;47.490;11.116;2023-02-28T01:42:14;93325.78;;;-3.37;84.60
21742;BME280;11033;47.490;11.116;2023-02-28T01:47:43;93315.69;;;-3.40;85.57
21742;BME280;11033;47.490;11.116;2023-02-28T01:50:15;93312.59;;;-3.45;85.69
21742;BME280;11033;47.490;11.116;2023-02-28T01:52:42;93308.59;;;-3.49;85.39
21742;BME280;11033;47.490;11.116;2023-02-28T01:55:10;93309.31;;;-3.60;85.55
21742;BME280;11033;47.490;11.116;2023-02-28T01:57:48;93305.19;;;-3.62;85.88
21742;BME280;11033;47.490;11.116;2023-02-28T02:00:16;93299.44;;;-3.66;85.87
21742;BME280;11033;47.490;11.116;2023-02-28T02:02:43;93299.22;;;-3.63;85.38
21742;BME280;11033;47.490;11.116;2023-02-28T02:05:14;93296.75;;;-3.64;85.26
21742;BME280;11033;47.490;11.116;2023-02-28T02:07:41;93293.47;;;-3.66;85.49
21742;BME280;11033;47.490;11.116;2023-02-28T02:10:15;93286.47;;;-3.64;84.93
21742;BME280;11033;47.490;11.116;2023-02-28T02:17:58;93282.75;;;-3.86;85.25
21742;BME280;11033;47.490;11.116;2023-02-28T02:21:11;93273.91;;;-3.81;84.57
21742;BME280;11033;47.490;11.116;2023-02-28T02:23:31;93271.53;;;-3.85;84.09
21742;BME280;11033;47.490;11.116;2023-02-28T02:31:41;93273.66;;;-4.04;84.86
21742;BME280;11033;47.490;11.116;2023-02-28T02:34:29;93271.78;;;-4.02;84.45
21742;BME280;11033;47.490;11.116;2023-02-28T02:37:14;93270.75;;;-4.12;85.04
21742;BME280;11033;47.490;11.116;2023-02-28T02:39:54;93264.78;;;-4.25;85.65
21742;BME280;11033;47.490;11.116;2023-02-28T02:42:34;93269.31;;;-4.16;85.27
21742;BME280;11033;47.490;11.116;2023-02-28T02:45:07;93263.53;;;-4.20;85.21
21742;BME280;11033;47.490;11.116;2023-02-28T02:47:35;93267.66;;;-4.17;84.26
21742;BME280;11033;47.490;11.116;2023-02-28T02:50:05;93262.72;;;-4.20;84.66
21742;BME280;11033;47.490;11.116;2023-02-28T02:52:38;93266.09;;;-4.32;85.94
21742;BME280;11033;47.490;11.116;2023-02-28T02:55:06;93265.69;;;-4.26;84.98
21742;BME280;11033;47.490;11.116;2023-02-28T02:57:41;93265.59;;;-4.25;84.44
21742;BME280;11033;47.490;11.116;2023-02-28T03:00:10;93265.16;;;-4.31;84.73
21742;BME280;11033;47.490;11.116;2023-02-28T03:02:37;93265.75;;;-4.40;85.02
21742;BME280;11033;47.490;11.116;2023-02-28T03:05:12;93270.28;;;-4.44;85.27
21742;BME280;11033;47.490;11.116;2023-02-28T03:07:39;93267.06;;;-4.48;85.63
21742;BME280;11033;47.490;11.116;2023-02-28T03:10:26;93271.13;;;-4.58;85.83
21742;BME280;11033;47.490;11.116;2023-02-28T03:13:19;93269.78;;;-4.63;86.09
21742;BME280;11033;47.490;11.116;2023-02-28T03:21:15;93273.16;;;-4.63;85.57
21742;BME280;11033;47.490;11.116;2023-02-28T03:23:48;93278.66;;;-4.55;84.37
21742;BME280;11033;47.490;11.116;2023-02-28T03:26:21;93277.38;;;-4.62;84.69
21742;BME280;11033;47.490;11.116;2023-02-28T03:29:08;93271.81;;;-4.68;85.14
21742;BME280;11033;47.490;11.116;2023-02-28T03:31:41;93273.13;;;-4.75;85.12
21742;BME280;11033;47.490;11.116;2023-02-28T03:34:28;93274.34;;;-4.81;85.41
21742;BME280;11033;47.490;11.116;2023-02-28T03:36:59;93282.84;;;-4.81;84.81
21742;BME280;11033;47.490;11.116;2023-02-28T03:39:39;93291.28;;;-4.79;84.67
21742;BME280;11033;47.490;11.116;2023-02-28T03:42:11;93274.44;;;-4.83;84.89
21742;BME280;11033;47.490;11.116;2023-02-28T03:44:42;93278.41;;;-4.91;85.22
21742;BME280;11033;47.490;11.116;2023-02-28T03:47:26;93285.91;;;-4.88;85.01
21742;BME280;11033;47.490;11.116;2023-02-28T03:50:05;93295.28;;;-5.01;85.39
21742;BME280;11033;47.490;11.116;2023-02-28T03:52:37;93300.25;;;-4.98;84.89
21742;BME280;11033;47.490;11.116;2023-02-28T03:55:09;93307.59;;;-5.06;86.07
21742;BME280;11033;47.490;11.116;2023-02-28T03:57:58;93302.84;;;-5.13;86.19
21742;BME280;11033;47.490;11.116;2023-02-28T04:00:37;93297.88;;;-5.16;85.88
21742;BME280;11033;47.490;11.116;2023-02-28T04:03:05;93299.88;;;-5.21;86.06
21742;BME280;11033;47.490;11.116;2023-02-28T04:05:31;93298.53;;;-5.12;84.66
21742;BME280;11033;47.490;11.116;2023-02-28T04:08:07;93298.97;;;-5.05;83.61
21742;BME280;11033;47.490;11.116;2023-02-28T04:10:33;93302.09;;;-5.29;86.07
21742;BME280;11033;47.490;11.116;2023-02-28T04:12:58;93299.88;;;-5.21;85.29
21742;BME280;11033;47.490;11.116;2023-02-28T04:15:23;93313.91;;;-5.26;85.52
21742;BME280;11033;47.490;11.116;2023-02-28T04:17:49;93308.78;;;-5.40;86.17
21742;BME280;11033;47.490;11.116;2023-02-28T04:20:15;93307.13;;;-5.42;86.77
21742;BME280;11033;47.490;11.116;2023-02-28T04:22:41;93305.94;;;-5.36;86.32
21742;BME280;11033;47.490;11.116;2023-02-28T04:25:06;93308.31;;;-5.47;86.31
21742;BME280;11033;47.490;11.116;2023-02-28T04:27:32;93318.03;;;-5.38;85.64
21742;BME280;11033;47.490;11.116;2023-02-28T04:29:57;93316.56;;;-5.42;85.86
21742;BME280;11033;47.490;11.116;2023-02-28T04:32:22;93314.56;;;-5.37;85.07
21742;BME280;11033;47.490;11.116;2023-02-28T04:34:48;93316.94;;;-5.48;85.76
21742;BME280;11033;47.490;11.116;2023-02-28T04:37:13;93317.13;;;-5.51;85.96
21742;BME280;11033;47.490;11.116;2023-02-28T04:39:38;93320.06;;;-5.57;86.18
21742;BME280;11033;47.490;11.116;2023-02-28T04:42:04;93321.63;;;-5.55;86.04
21742;BME280;11033;47.490;11.116;2023-02-28T04:44:29;93313.63;;;-5.64;86.70
21742;BME280;11033;47.490;11.116;2023-02-28T04:46:55;93324.06;;;-5.82;86.89
21742;BME280;11033;47.490;11.116;2023-02-28T04:49:20;93326.00;;;-5.71;85.74
21742;BME280;11033;47.490;11.116;2023-02-28T04:51:45;93330.13;;;-5.68;86.16
21742;BME280;11033;47.490;11.116;2023-02-28T04:54:11;93323.34;;;-5.69;85.68
21742;BME280;11033;47.490;11.116;2023-02-28T04:56:36;93327.66;;;-5.70;85.91
21742;BME280;11033;47.490;11.116;2023-02-28T04:59:02;93336.50;;;-5.90;85.88
21742;BME280;11033;47.490;11.116;2023-02-28T05:01:32;93335.03;;;-5.94;87.04
21742;BME280;11033;47.490;11.116;2023-02-28T05:04:00;93341.28;;;-5.84;87.13
21742;BME280;11033;47.490;11.116;2023-02-28T05:06:28;93338.72;;;-5.84;86.94
21742;BME280;11033;47.490;11.116;2023-02-28T05:08:53;93352.66;;;-5.73;85.45
21742;BME280;11033;47.490;11.116;2023-02-28T05:11:24;93347.88;;;-5.80;85.94
21742;BME280;11033;47.490;11.116;2023-02-28T05:13:50;93345.28;;;-5.94;85.83
21742;BME280;11033;47.490;11.116;2023-02-28T05:16:16;93343.25;;;-5.89;86.23
21742;BME280;11033;47.490;11.116;2023-02-28T05:18:42;93348.53;;;-6.06;86.57
21742;BME280;11033;47.490;11.116;2023-02-28T05:21:34;93345.38;;;-5.95;86.24
21742;BME280;11033;47.490;11.116;2023-02-28T05:24:05;93359.84;;;-5.94;86.23
21742;BME280;11033;47.490;11.116;2023-02-28T05:26:37;93353.28;;;-6.14;86.97
21742;BME280;11033;47.490;11.116;2023-02-28T05:29:04;93349.94;;;-6.30;87.16
21742;BME280;11033;47.490;11.116;2023-02-28T05:31:30;93363.88;;;-6.20;87.26
21742;BME280;11033;47.490;11.116;2023-02-28T05:33:55;93357.84;;;-6.19;87.04
21742;BME280;11033;47.490;11.116;2023-02-28T05:36:20;93359.28;;;-6.29;87.41
21742;BME280;11033;47.490;11.116;2023-02-28T05:38:47;93358.09;;;-6.24;87.13
21742;BME280;11033;47.490;11.116;2023-02-28T05:41:13;93355.81;;;-6.28;87.36
21742;BME280;11033;47.490;11.116;2023-02-28T05:43:38;93368.03;;;-6.33;87.20
21742;BME280;11033;47.490;11.116;2023-02-28T05:46:09;93363.31;;;-6.25;87.20
21742;BME280;11033;47.490;11.116;2023-02-28T05:48:36;93366.06;;;-6.28;87.13
21742;BME280;11033;47.490;11.116;2023-02-28T05:51:02;93377.94;;;-6.27;87.02
21742;BME280;11033;47.490;11.116;2023-02-28T05:53:28;93377.38;;;-6.32;87.67
21742;BME280;11033;47.490;11.116;2023-02-28T05:55:53;93376.63;;;-6.34;88.14
21742;BME280;11033;47.490;11.116;2023-02-28T05:58:18;93384.91;;;-6.29;88.34
21742;BME280;11033;47.490;11.116;2023-02-28T06:00:43;93394.97;;;-6.26;87.22
21742;BME280;11033;47.490;11.116;2023-02-28T06:03:09;93393.00;;;-6.37;88.03
21742;BME280;11033;47.490;11.116;2023-02-28T06:05:34;93390.19;;;-6.32;88.12
21742;BME280;11033;47.490;11.116;2023-02-28T06:07:59;93400.09;;;-6.26;88.98
21742;BME280;11033;47.490;11.116;2023-02-28T06:10:25;93408.53;;;-6.24;88.89
21742;BME280;11033;47.490;11.116;2023-02-28T06:12:50;93399.44;;;-6.30;89.73
21742;BME280;11033;47.490;11.116;2023-02-28T06:15:16;93410.19;;;-6.23;89.59
21742;BME280;11033;47.490;11.116;2023-02-28T06:17:42;93411.09;;;-6.24;89.62
21742;BME280;11033;47.490;11.116;2023-02-28T06:20:09;93414.06;;;-6.16;89.26
21742;BME280;11033;47.490;11.116;2023-02-28T06:22:36;93408.94;;;-6.16;88.41
21742;BME280;11033;47.490;11.116;2023-02-28T06:25:02;93418.44;;;-6.18;88.95
21742;BME280;11033;47.490;11.116;2023-02-28T06:27:27;93418.94;;;-6.27;89.80
21742;BME280;11033;47.490;11.116;2023-02-28T06:29:54;93417.63;;;-6.34;90.81
21742;BME280;11033;47.490;11.116;2023-02-28T06:32:20;93422.59;;;-6.31;91.34
21742;BME280;11033;47.490;11.116;2023-02-28T06:34:45;93430.03;;;-6.27;91.36
21742;BME280;11033;47.490;11.116;2023-02-28T06:37:10;93430.16;;;-6.14;91.55
21742;BME280;11033;47.490;11.116;2023-02-28T06:39:36;93430.34;;;-6.17;91.20
21742;BME280;11033;47.490;11.116;2023-02-28T06:42:01;93422.88;;;-6.06;91.33
21742;BME280;11033;47.490;11.116;2023-02-28T06:44:26;93434.63;;;-6.02;90.98
21742;BME280;11033;47.490;11.116;2023-02-28T06:46:51;93434.09;;;-5.93;90.43
21742;BME280;11033;47.490;11.116;2023-02-28T06:49:17;93434.75;;;-5.89;90.90
21742;BME280;11033;47.490;11.116;2023-02-28T06:51:44;93440.19;;;-5.80;90.41
21742;BME280;11033;47.490;11.116;2023-02-28T06:54:12;93441.84;;;-5.79;89.96
21742;BME280;11033;47.490;11.116;2023-02-28T06:56:38;93439.50;;;-5.67;89.15
21742;BME280;11033;47.490;11.116;2023-02-28T06:59:04;93444.00;;;-5.57;89.20
21742;BME280;11033;47.490;11.116;2023-02-28T07:01:30;93443.56;;;-5.49;89.32
21742;BME280;11033;47.490;11.116;2023-02-28T07:03:58;93445.03;;;-5.45;88.52
21742;BME280;11033;47.490;11.116;2023-02-28T07:06:25;93442.66;;;-5.48;87.83
21742;BME280;11033;47.490;11.116;2023-02-28T07:08:51;93442.47;;;-5.45;88.23
21742;BME280;11033;47.490;11.116;2023-02-28T07:11:18;93443.09;;;-5.56;88.15
21742;BME280;11033;47.490;11.116;2023-02-28T07:13:43;93441.50;;;-5.28;87.33
21742;BME280;11033;47.490;11.116;2023-02-28T07:16:10;93435.19;;;-5.23;87.20
21742;BME280;11033;47.490;11.116;2023-02-28T07:18:36;93440.81;;;-5.16;86.29
21742;BME280;11033;47.490;11.116;2023-02-28T07:21:04;93435.19;;;-5.23;87.14
21742;BME280;11033;47.490;11.116;2023-02-28T07:23:29;93432.19;;;-5.01;86.59
21742;BME280;11033;47.490;11.116;2023-02-28T07:25:55;93439.81;;;-4.99;85.77
21742;BME280;11033;47.490;11.116;2023-02-28T07:28:20;93431.28;;;-4.71;85.34
21742;BME280;11033;47.490;11.116;2023-02-28T07:30:45;93431.09;;;-4.54;84.12
21742;BME280;11033;47.490;11.116;2023-02-28T07:33:11;93431.91;;;-4.68;84.59
21742;BME280;11033;47.490;11.116;2023-02-28T07:35:36;93440.72;;;-4.58;85.03
21742;BME280;11033;47.490;11.116;2023-02-28T07:38:01;93440.16;;;-4.34;84.17
21742;BME280;11033;47.490;11.116;2023-02-28T07:40:28;93440.53;;;-4.83;83.81
21742;BME280;11033;47.490;11.116;2023-02-28T07:42:53;93440.53;;;-4.40;84.30
21742;BME280;11033;47.490;11.116;2023-02-28T07:45:18;93443.06;;;-4.26;83.18
21742;BME280;11033;47.490;11.116;2023-02-28T07:47:44;93443.69;;;-4.23;83.50
21742;BME280;11033;47.490;11.116;2023-02-28T07:50:12;93444.28;;;-4.32;83.64
21742;BME280;11033;47.490;11.116;2023-02-28T07:52:38;93446.53;;;-4.13;83.22
21742;BME280;11033;47.490;11.116;2023-02-28T07:55:05;93440.91;;;-4.05;82.60
21742;BME280;11033;47.490;11.116;2023-02-28T07:57:31;93449.78;;;-3.97;82.22
21742;BME280;11033;47.490;11.116;2023-02-28T07:59:57;93447.00;;;-3.79;81.97
21742;BME280;11033;47.490;11.116;2023-02-28T08:02:22;93447.56;;;-3.62;80.99
21742;BME280;11033;47.490;11.116;2023-02-28T08:04:47;93453.66;;;-3.50;80.45
21742;BME280;11033;47.490;11.116;2023-02-28T08:07:13;93457.16;;;-3.51;79.53
21742;BME280;11033;47.490;11.116;2023-02-28T08:09:39;93457.38;;;-3.81;80.17
21742;BME280;11033;47.490;11.116;2023-02-28T08:12:05;93458.72;;;-3.75;79.94
21742;BME280;11033;47.490;11.116;2023-02-28T08:14:31;93458.25;;;-3.68;80.35
21742;BME280;11033;47.490;11.116;2023-02-28T08:16:56;93455.50;;;-3.52;79.59
21742;BME280;11033;47.490;11.116;2023-02-28T08:19:22;93450.81;;;-3.33;79.28
21742;BME280;11033;47.490;11.116;2023-02-28T08:21:47;93456.88;;;-3.34;78.88
21742;BME280;11033;47.490;11.116;2023-02-28T08:24:12;93456.56;;;-3.42;78.72
21742;BME280;11033;47.490;11.116;2023-02-28T08:26:37;93450.81;;;-3.33;79.39
21742;BME280;11033;47.490;11.116;2023-02-28T08:29:03;93464.06;;;-3.52;79.50
21742;BME280;11033;47.490;11.116;2023-02-28T08:31:28;93458.22;;;-3.41;79.63
21742;BME280;11033;47.490;11.116;2023-02-28T08:33:53;93463.56;;;-3.44;79.69
21742;BME280;11033;47.490;11.116;2023-02-28T08:36:21;93459.06;;;-3.28;79.26
21742;BME280;11033;47.490;11.116;2023-02-28T08:38:47;93469.69;;;-3.59;79.67
21742;BME280;11033;47.490;11.116;2023-02-28T08:41:12;93466.56;;;-3.77;79.05
21742;BME280;11033;47.490;11.116;2023-02-28T08:43:39;93470.16;;;-3.40;79.65
21742;BME280;11033;47.490;11.116;2023-02-28T08:46:05;93472.72;;;-3.40;79.11
21742;BME280;11033;47.490;11.116;2023-02-28T08:48:32;93470.00;;;-3.64;78.89
21742;BME280;11033;47.490;11.116;2023-02-28T08:50:58;93471.81;;;-3.39;79.20
21742;BME280;11033;47.490;11.116;2023-02-28T08:53:23;93472.59;;;-3.11;79.15
21742;BME280;11033;47.490;11.116;2023-02-28T08:55:59;93469.84;;;-2.83;78.78
21742;BME280;11033;47.490;11.116;2023-02-28T08:58:25;93471.28;;;-2.66;78.01
21742;BME280;11033;47.490;11.116;2023-02-28T09:00:51;93468.81;;;-2.42;77.62
21742;BME280;11033;47.490;11.116;2023-02-28T09:03:16;93463.44;;;-2.39;76.15
21742;BME280;11033;47.490;11.116;2023-02-28T09:05:55;93467.59;;;-2.49;76.01
21742;BME280;11033;47.490;11.116;2023-02-28T09:08:20;93465.88;;;-2.12;76.32
21742;BME280;11033;47.490;11.116;2023-02-28T09:10:46;93466.16;;;-2.04;76.07
21742;BME280;11033;47.490;11.116;2023-02-28T09:13:11;93473.09;;;-2.17;75.52
21742;BME280;11033;47.490;11.116;2023-02-28T09:15:39;93474.59;;;-2.64;75.36
21742;BME280;11033;47.490;11.116;2023-02-28T09:18:05;93471.53;;;-1.95;74.62
21742;BME280;11033;47.490;11.116;2023-02-28T09:20:30;93473.22;;;-2.19;75.26
21742;BME280;11033;47.490;11.116;2023-02-28T09:22:55;93464.44;;;-1.56;74.74
21742;BME280;11033;47.490;11.116;2023-02-28T09:25:21;93472.03;;;-1.89;74.61
21742;BME280;11033;47.490;11.116;2023-02-28T09:27:46;93464.38;;;-1.91;73.11
21742;BME280;11033;47.490;11.116;2023-02-28T09:30:12;93466.06;;;-1.66;73.73
21742;BME280;11033;47.490;11.116;2023-02-28T09:32:37;93475.75;;;-1.46;72.74
21742;BME280;11033;47.490;11.116;2023-02-28T09:35:03;93471.75;;;-0.91;72.95
21742;BME280;11033;47.490;11.116;2023-02-28T09:37:28;93475.31;;;-0.81;71.96
21742;BME280;11033;47.490;11.116;2023-02-28T09:39:54;93470.31;;;-1.06;70.90
21742;BME280;11033;47.490;11.116;2023-02-28T09:42:31;93478.97;;;-1.18;71.69
21742;BME280;11033;47.490;11.116;2023-02-28T09:45:00;93474.28;;;-1.13;70.30
21742;BME280;11033;47.490;11.116;2023-02-28T09:47:30;93479.63;;;-0.92;71.67
21742;BME280;11033;47.490;11.116;2023-02-28T09:50:05;93472.31;;;-0.52;69.78
21742;BME280;11033;47.490;11.116;2023-02-28T09:52:32;93480.56;;;-0.36;69.06
21742;BME280;11033;47.490;11.116;2023-02-28T09:55:22;93482.22;;;0.10;70.03
21742;BME280;11033;47.490;11.116;2023-02-28T09:57:51;93480.78;;;-0.06;68.84
21742;BME280;11033;47.490;11.116;2023-02-28T10:00:21;93481.50;;;0.08;69.08
21742;BME280;11033;47.490;11.116;2023-02-28T10:02:56;93482.38;;;0.51;68.71
21742;BME280;11033;47.490;11.116;2023-02-28T10:05:56;93482.19;;;0.21;67.17
21742;BME280;11033;47.490;11.116;2023-02-28T10:08:31;93485.59;;;1.08;68.24
21742;BME280;11033;47.490;11.116;2023-02-28T10:11:00;93485.69;;;1.38;67.82
21742;BME280;11033;47.490;11.116;2023-02-28T10:13:33;93491.72;;;1.39;66.06
21742;BME280;11033;47.490;11.116;2023-02-28T10:16:31;93487.59;;;1.87;66.21
21742;BME280;11033;47.490;11.116;2023-02-28T10:19:10;93489.16;;;2.30;65.51
21742;BME280;11033;47.490;11.116;2023-02-28T10:21:46;93487.38;;;2.31;64.65
21742;BME280;11033;47.490;11.116;2023-02-28T10:24:21;93510.69;;;2.51;64.24
21742;BME280;11033;47.490;11.116;2023-02-28T10:26:48;93504.50;;;2.33;64.71
21742;BME280;11033;47.490;11.116;2023-02-28T10:29:14;93498.81;;;2.59;63.85
21742;BME280;11033;47.490;11.116;2023-02-28T10:31:40;93502.69;;;2.74;63.14
21742;BME280;11033;47.490;11.116;2023-02-28T10:34:06;93505.66;;;2.60;64.61
21742;BME280;11033;47.490;11.116;2023-02-28T10:36:32;93502.34;;;3.36;61.64
21742;BME280;11033;47.490;11.116;2023-02-28T10:38:57;93492.63;;;3.29;61.37
21742;BME280;11033;47.490;11.116;2023-02-28T10:41:31;93503.78;;;3.77;60.64
21742;BME280;11033;47.490;11.116;2023-02-28T10:44:20;93495.06;;;3.40;63.64
21742;BME280;11033;47.490;11.116;2023-02-28T10:46:45;93494.63;;;4.20;60.20
21742;BME280;11033;47.490;11.116;2023-02-28T10:49:22;93494.47;;;4.59;58.69
21742;BME280;11033;47.490;11.116;2023-02-28T10:51:52;93507.84;;;2.54;60.00
21742;BME280;11033;47.490;11.116;2023-02-28T10:54:22;93499.06;;;3.44;58.44
21742;BME280;11033;47.490;11.116;2023-02-28T10:57:06;93492.44;;;4.98;56.68
21742;BME280;11033;47.490;11.116;2023-02-28T10:59:32;93488.03;;;4.53;56.56
21742;BME280;11033;47.490;11.116;2023-02-28T11:01:57;93493.63;;;3.94;58.99
21742;BME280;11033;47.490;11.116;2023-02-28T11:07:03;93494.41;;;5.49;57.84
21742;BME280;11033;47.490;11.116;2023-02-28T11:09:39;93495.81;;;4.90;56.09
21742;BME280;11033;47.490;11.116;2023-02-28T11:12:07;93493.06;;;6.32;55.11
21742;BME280;11033;47.490;11.116;2023-02-28T11:14:49;93489.09;;;7.05;55.41
21742;BME280;11033;47.490;11.116;2023-02-28T11:17:24;93497.69;;;4.43;55.70
21742;BME280;11033;47.490;11.116;2023-02-28T11:19:53;93482.28;;;7.36;52.66
21742;BME280;11033;47.490;11.116;2023-02-28T11:22:24;93483.16;;;6.86;55.49
21742;BME280;11033;47.490;11.116;2023-02-28T11:24:55;93485.69;;;6.02;53.21
21742;BME280;11033;47.490;11.116;2023-02-28T11:29:51;93484.28;;;6.42;55.30
21742;BME280;11033;47.490;11.116;2023-02-28T11:32:20;93481.78;;;8.14;50.48
21742;BME280;11033;47.490;11.116;2023-02-28T11:35:02;93476.38;;;7.26;51.15
21742;BME280;11033;47.490;11.116;2023-02-28T11:37:30;93481.31;;;7.78;49.74
21742;BME280;11033;47.490;11.116;2023-02-28T11:39:55;93482.25;;;8.89;49.47
21742;BME280;11033;47.490;11.116;2023-02-28T11:42:47;93480.59;;;9.27;47.97
21742;BME280;11033;47.490;11.116;2023-02-28T11:48:07;93477.63;;;8.44;47.80
21742;BME280;11033;47.490;11.116;2023-02-28T11:53:19;93485.56;;;7.71;48.97
21742;BME280;11033;47.490;11.116;2023-02-28T11:58:38;93486.72;;;6.43;49.90
21742;BME280;11033;47.490;11.116;2023-02-28T12:01:22;93493.75;;;7.27;52.19
21742;BME280;11033;47.490;11.116;2023-02-28T12:04:33;93494.88;;;6.06;51.87
21742;BME280;11033;47.490;11.116;2023-02-28T12:07:11;93497.19;;;6.09;53.51
21742;BME280;11033;47.490;11.116;2023-02-28T12:18:17;93496.03;;;6.38;52.75
21742;BME280;11033;47.490;11.116;2023-02-28T12:20:54;93498.41;;;5.97;52.16
21742;BME280;11033;47.490;11.116;2023-02-28T12:29:03;93503.34;;;6.60;51.15
21742;BME280;11033;47.490;11.116;2023-02-28T12:31:35;93508.75;;;4.55;53.45
21742;BME280;11033;47.490;11.116;2023-02-28T12:34:06;93506.50;;;4.69;55.17
21742;BME280;11033;47.490;11.116;2023-02-28T12:36:35;93499.41;;;5.43;54.14
21742;BME280;11033;47.490;11.116;2023-02-28T12:39:17;93493.38;;;4.61;53.33
21742;BME280;11033;47.490;11.116;2023-02-28T12:41:49;93496.78;;;4.62;55.11
21742;BME280;11033;47.490;11.116;2023-02-28T12:46:44;93493.03;;;4.74;55.13
21742;BME280;11033;47.490;11.116;2023-02-28T12:49:36;93493.91;;;3.91;57.17
21742;BME280;11033;47.490;11.116;2023-02-28T12:52:04;93488.22;;;3.39;57.21
21742;BME280;11033;47.490;11.116;2023-02-28T12:54:46;93496.03;;;3.29;58.44
21742;BME280;11033;47.490;11.116;2023-02-28T12:57:48;93492.59;;;3.48;58.15
21742;BME280;11033;47.490;11.116;2023-02-28T13:00:18;93498.59;;;2.71;58.46
21742;BME280;11033;47.490;11.116;2023-02-28T13:11:03;93498.09;;;1.35;63.91
21742;BME280;11033;47.490;11.116;2023-02-28T13:13:30;93501.59;;;0.92;64.76
21742;BME280;11033;47.490;11.116;2023-02-28T13:16:08;93494.13;;;1.31;64.41
21742;BME280;11033;47.490;11.116;2023-02-28T13:18:37;93502.22;;;1.58;63.62
21742;BME280;11033;47.490;11.116;2023-02-28T13:21:06;93489.78;;;0.67;66.58
21742;BME280;11033;47.490;11.116;2023-02-28T13:26:08;93492.84;;;1.46;64.83
21742;BME280;11033;47.490;11.116;2023-02-28T13:31:14;93493.22;;;1.62;64.25
21742;BME280;11033;47.490;11.116;2023-02-28T13:49:19;93491.81;;;1.16;66.75
21742;BME280;11033;47.490;11.116;2023-02-28T13:51:47;93501.16;;;1.08;67.85
21742;BME280;11033;47.490;11.116;2023-02-28T13:56:57;93499.63;;;1.05;66.96
21742;BME280;11033;47.490;11.116;2023-02-28T14:05:00;93504.38;;;1.00;67.34
21742;BME280;11033;47.490;11.116;2023-02-28T14:07:47;93511.72;;;0.95;67.34
21742;BME280;11033;47.490;11.116;2023-02-28T14:10:23;93517.50;;;0.22;69.85
21742;BME280;11033;47.490;11.116;2023-02-28T14:12:59;93513.50;;;0.18;70.13
21742;BME280;11033;47.490;11.116;2023-02-28T14:15:39;93513.72;;;-0.08;70.61
21742;BME280;11033;47.490;11.116;2023-02-28T14:20:47;93511.84;;;0.39;69.70
21742;BME280;11033;47.490;11.116;2023-02-28T14:29:18;93516.78;;;-0.03;71.42
21742;BME280;11033;47.490;11.116;2023-02-28T14:31:45;93514.44;;;-0.28;72.18
21742;BME280;11033;47.490;11.116;2023-02-28T14:34:40;93517.28;;;0.25;69.42
21742;BME280;11033;47.490;11.116;2023-02-28T14:37:15;93515.56;;;-0.54;72.73
21742;BME280;11033;47.490;11.116;2023-02-28T14:39:42;93514.69;;;-0.09;70.93